createdAt,value
2023-04-12T00:00:46.794Z,13.19
2023-04-12T00:01:50.648Z,14.91
2023-04-12T00:02:54.729Z,34.96
2023-04-12T00:03:58.933Z,40.19
2023-04-12T00:05:03.747Z,36.50
2023-04-12T00:06:07.988Z,13.79
2023-04-12T00:07:12.247Z,9.91
2023-04-12T00:08:20.471Z,13.36
2023-04-12T00:09:24.738Z,10.31
2023-04-12T00:10:28.242Z,10.32
2023-04-12T00:11:31.638Z,7.81
2023-04-12T00:12:47.417Z,9.53
2023-04-12T00:13:51.760Z,10.30
2023-04-12T00:14:55.594Z,15.75
2023-04-12T00:15:59.439Z,9.56
2023-04-12T00:17:03.134Z,12.19
2023-04-12T00:18:06.510Z,12.47
2023-04-12T00:19:10.664Z,15.68
2023-04-12T00:20:14.359Z,15.83
2023-04-12T00:21:18.302Z,10.66
2023-04-12T00:22:22.162Z,8.99
2023-04-12T00:23:25.671Z,8.58
2023-04-12T00:24:29.602Z,8.33
2023-04-12T00:25:34.187Z,8.35
2023-04-12T00:26:50.278Z,10.25
2023-04-12T00:27:53.568Z,9.66
2023-04-12T00:28:57.587Z,11.72
2023-04-12T00:30:01.261Z,14.05
2023-04-12T00:31:05.206Z,46.72
2023-04-12T00:32:09.248Z,92.46
2023-04-12T00:33:13.160Z,15.00
2023-04-12T00:34:16.402Z,14.01
2023-04-12T00:35:19.528Z,12.15
2023-04-12T00:36:22.493Z,11.85
2023-04-12T00:37:25.459Z,11.52
2023-04-12T00:38:28.540Z,48.84
2023-04-12T00:39:31.923Z,23.25
2023-04-12T00:40:34.902Z,9.48
2023-04-12T00:41:37.895Z,10.82
2023-04-12T00:42:40.765Z,13.49
2023-04-12T00:43:43.537Z,14.74
2023-04-12T00:44:46.618Z,9.91
2023-04-12T00:45:49.589Z,9.76
2023-04-12T00:46:52.424Z,15.12
2023-04-12T00:47:55.387Z,14.14
2023-04-12T00:48:58.316Z,31.12
2023-04-12T00:50:01.396Z,19.32
2023-04-12T00:51:04.478Z,15.15
2023-04-12T00:52:07.254Z,14.50
2023-04-12T00:53:10.116Z,11.37
2023-04-12T00:54:13.097Z,9.55
2023-04-12T00:55:15.994Z,9.68
2023-04-12T00:56:21.619Z,9.13
2023-04-12T00:57:24.686Z,11.34
2023-04-12T00:58:27.886Z,9.43
2023-04-12T00:59:30.975Z,9.96
2023-04-12T01:00:33.963Z,11.08
2023-04-12T01:01:36.759Z,10.18
2023-04-12T01:02:39.615Z,10.75
2023-04-12T01:03:42.785Z,10.18
2023-04-12T01:04:45.531Z,7.78
2023-04-12T01:05:48.196Z,11.47
2023-04-12T01:06:50.868Z,8.82
2023-04-12T01:07:53.636Z,8.57
2023-04-12T01:08:56.338Z,9.16
2023-04-12T01:09:59.488Z,9.83
2023-04-12T01:11:02.604Z,11.51
2023-04-12T01:12:05.648Z,13.34
2023-04-12T01:13:08.723Z,17.96
2023-04-12T01:14:15.027Z,9.07
2023-04-12T01:15:17.860Z,10.19
2023-04-12T01:16:20.756Z,9.27
2023-04-12T01:17:23.751Z,10.45
2023-04-12T01:18:26.686Z,7.51
2023-04-12T01:19:29.661Z,17.58
2023-04-12T01:20:32.530Z,17.83
2023-04-12T01:21:35.616Z,13.88
2023-04-12T01:22:38.706Z,10.28
2023-04-12T01:23:42.088Z,7.99
2023-04-12T01:24:45.173Z,8.79
2023-04-12T01:25:48.043Z,8.48
2023-04-12T01:26:51.018Z,9.70
2023-04-12T01:27:53.788Z,8.00
2023-04-12T01:28:56.837Z,6.78
2023-04-12T01:29:59.741Z,9.37
2023-04-12T01:31:02.636Z,9.05
2023-04-12T01:32:05.606Z,15.38
2023-04-12T01:33:08.534Z,27.38
2023-04-12T01:34:11.444Z,89.25
2023-04-12T01:35:14.314Z,33.67
2023-04-12T01:36:17.192Z,12.77
2023-04-12T01:37:20.178Z,7.48
2023-04-12T01:38:23.041Z,8.15
2023-04-12T01:39:25.913Z,9.55
2023-04-12T01:40:28.793Z,12.62
2023-04-12T01:41:31.665Z,11.53
2023-04-12T01:42:34.755Z,7.53
2023-04-12T01:43:37.905Z,8.26
2023-04-12T01:44:40.800Z,9.73
2023-04-12T01:45:43.711Z,13.05
2023-04-12T01:46:46.669Z,12.95
2023-04-12T01:47:49.786Z,9.25
2023-04-12T01:48:53.947Z,11.76
2023-04-12T01:49:56.712Z,14.23
2023-04-12T01:50:59.692Z,13.22
2023-04-12T01:52:02.470Z,14.18
2023-04-12T01:53:05.238Z,13.32
2023-04-12T01:54:08.043Z,9.83
2023-04-12T01:55:10.993Z,8.28
2023-04-12T01:56:13.656Z,7.88
2023-04-12T01:57:16.645Z,7.43
2023-04-12T01:58:19.724Z,16.55
2023-04-12T01:59:22.590Z,15.48
2023-04-12T02:00:25.571Z,18.65
2023-04-12T02:01:28.342Z,18.02
2023-04-12T02:02:31.430Z,14.28
2023-04-12T02:03:34.415Z,20.70
2023-04-12T02:04:37.281Z,20.91
2023-04-12T02:05:41.169Z,14.74
2023-04-12T02:06:44.040Z,9.54
2023-04-12T02:07:47.158Z,17.25
2023-04-12T02:08:50.126Z,27.52
2023-04-12T02:09:52.973Z,14.00
2023-04-12T02:10:58.812Z,9.64
2023-04-12T02:12:01.799Z,8.79
2023-04-12T02:13:04.772Z,10.13
2023-04-12T02:14:07.545Z,20.09
2023-04-12T02:15:10.528Z,15.94
2023-04-12T02:16:13.346Z,18.28
2023-04-12T02:17:16.161Z,15.80
2023-04-12T02:18:19.145Z,16.11
2023-04-12T02:19:22.019Z,17.27
2023-04-12T02:20:26.638Z,6.63
2023-04-12T02:21:29.197Z,6.07
2023-04-12T02:22:31.864Z,13.65
2023-04-12T02:23:34.541Z,19.82
2023-04-12T02:24:37.233Z,16.64
2023-04-12T02:25:39.987Z,15.10
2023-04-12T02:26:42.650Z,25.10
2023-04-12T02:27:45.617Z,11.79
2023-04-12T02:28:48.619Z,15.71
2023-04-12T02:29:51.645Z,11.94
2023-04-12T02:30:54.574Z,26.70
2023-04-12T02:31:57.689Z,25.38
2023-04-12T02:33:00.751Z,22.10
2023-04-12T02:34:03.549Z,13.85
2023-04-12T02:35:06.261Z,18.42
2023-04-12T02:36:08.932Z,19.90
2023-04-12T02:37:11.826Z,7.26
2023-04-12T02:38:14.676Z,10.69
2023-04-12T02:39:17.549Z,16.45
2023-04-12T02:40:20.738Z,8.38
2023-04-12T02:41:23.610Z,10.25
2023-04-12T02:42:26.489Z,12.78
2023-04-12T02:43:29.361Z,13.28
2023-04-12T02:44:34.549Z,15.26
2023-04-12T02:45:37.363Z,11.38
2023-04-12T02:46:40.238Z,11.43
2023-04-12T02:47:43.256Z,7.29
2023-04-12T02:48:45.993Z,7.38
2023-04-12T02:49:49.272Z,8.02
2023-04-12T02:50:52.653Z,10.01
2023-04-12T02:51:55.532Z,11.48
2023-04-12T02:52:58.410Z,9.85
2023-04-12T02:54:01.296Z,8.34
2023-04-12T02:55:04.159Z,7.58
2023-04-12T02:56:07.143Z,9.79
2023-04-12T02:57:09.909Z,10.62
2023-04-12T02:58:18.900Z,11.00
2023-04-12T02:59:21.706Z,7.62
2023-04-12T03:00:24.673Z,8.55
2023-04-12T03:01:27.670Z,11.34
2023-04-12T03:02:30.621Z,10.93
2023-04-12T03:03:34.632Z,10.86
2023-04-12T03:04:37.502Z,12.44
2023-04-12T03:05:40.584Z,8.42
2023-04-12T03:06:43.455Z,9.21
2023-04-12T03:07:46.327Z,13.15
2023-04-12T03:08:49.212Z,11.48
2023-04-12T03:09:51.978Z,10.95
2023-04-12T03:10:54.978Z,15.50
2023-04-12T03:11:57.824Z,12.86
2023-04-12T03:13:00.862Z,14.98
2023-04-12T03:14:03.678Z,14.09
2023-04-12T03:15:06.554Z,20.02
2023-04-12T03:16:09.454Z,26.37
2023-04-12T03:17:12.301Z,34.45
2023-04-12T03:18:15.174Z,13.38
2023-04-12T03:19:18.052Z,13.62
2023-04-12T03:20:21.167Z,24.92
2023-04-12T03:21:24.012Z,16.71
2023-04-12T03:22:26.996Z,12.29
2023-04-12T03:23:29.975Z,9.69
2023-04-12T03:24:32.733Z,7.62
2023-04-12T03:25:35.609Z,11.35
2023-04-12T03:26:38.485Z,18.52
2023-04-12T03:27:41.353Z,28.59
2023-04-12T03:28:44.234Z,19.07
2023-04-12T03:29:47.213Z,21.58
2023-04-12T03:30:50.207Z,16.25
2023-04-12T03:31:53.065Z,15.12
2023-04-12T03:32:55.966Z,13.13
2023-04-12T03:33:59.076Z,17.48
2023-04-12T03:35:02.095Z,19.45
2023-04-12T03:36:05.106Z,16.58
2023-04-12T03:37:08.006Z,11.92
2023-04-12T03:38:10.824Z,18.01
2023-04-12T03:39:13.688Z,20.52
2023-04-12T03:40:16.563Z,11.21
2023-04-12T03:41:19.441Z,18.83
2023-04-12T03:42:32.256Z,18.21
2023-04-12T03:43:27.548Z,21.37
2023-04-12T03:44:30.427Z,39.02
2023-04-12T03:45:33.294Z,14.99
2023-04-12T03:46:36.135Z,13.93
2023-04-12T03:47:39.081Z,17.37
2023-04-12T03:48:42.021Z,18.17
2023-04-12T03:49:49.495Z,10.25
2023-04-12T03:50:49.303Z,7.57
2023-04-12T03:51:52.280Z,7.00
2023-04-12T03:52:55.160Z,8.89
2023-04-12T03:53:58.372Z,10.62
2023-04-12T03:55:01.108Z,11.72
2023-04-12T03:56:03.781Z,18.54
2023-04-12T03:57:06.347Z,8.37
2023-04-12T03:58:09.025Z,8.18
2023-04-12T03:59:11.794Z,11.08
2023-04-12T04:00:14.465Z,8.98
2023-04-12T04:01:17.129Z,6.94
2023-04-12T04:02:20.058Z,7.97
2023-04-12T04:03:22.927Z,9.77
2023-04-12T04:04:25.801Z,10.92
2023-04-12T04:05:28.737Z,9.77
2023-04-12T04:06:31.711Z,9.75
2023-04-12T04:07:34.585Z,7.66
2023-04-12T04:08:37.467Z,11.07
2023-04-12T04:09:40.334Z,15.77
2023-04-12T04:10:43.326Z,10.80
2023-04-12T04:11:46.186Z,10.72
2023-04-12T04:12:48.954Z,6.83
2023-04-12T04:13:51.934Z,13.55
2023-04-12T04:14:54.829Z,9.27
2023-04-12T04:15:57.865Z,9.08
2023-04-12T04:17:00.672Z,7.26
2023-04-12T04:18:03.457Z,4.58
2023-04-12T04:19:06.320Z,6.31
2023-04-12T04:20:09.285Z,5.99
2023-04-12T04:21:12.980Z,7.59
2023-04-12T04:22:16.161Z,6.10
2023-04-12T04:23:19.036Z,5.75
2023-04-12T04:24:21.705Z,10.20
2023-04-12T04:25:24.481Z,5.66
2023-04-12T04:26:27.355Z,8.46
2023-04-12T04:27:30.128Z,5.35
2023-04-12T04:28:34.800Z,6.57
2023-04-12T04:29:37.411Z,3.45
2023-04-12T04:30:40.208Z,3.12
2023-04-12T04:31:43.074Z,4.55
2023-04-12T04:32:46.049Z,4.37
2023-04-12T04:33:48.936Z,5.71
2023-04-12T04:34:51.799Z,4.30
2023-04-12T04:35:54.699Z,3.05
2023-04-12T04:36:57.563Z,3.60
2023-04-12T04:38:00.414Z,3.49
2023-04-12T04:39:03.282Z,3.81
2023-04-12T04:40:06.161Z,3.62
2023-04-12T04:41:09.155Z,4.64
2023-04-12T04:42:12.015Z,3.98
2023-04-12T04:43:14.893Z,3.30
2023-04-12T04:44:17.966Z,7.41
2023-04-12T04:45:20.921Z,4.15
2023-04-12T04:46:23.815Z,4.11
2023-04-12T04:47:26.745Z,5.95
2023-04-12T05:46:26.440Z,4.11
2023-04-12T05:47:29.092Z,5.43
2023-04-12T05:48:31.954Z,5.97
2023-04-12T05:49:37.043Z,4.92
2023-04-12T05:50:39.650Z,4.75
2023-04-12T05:51:42.829Z,5.12
2023-04-12T05:52:45.599Z,4.29
2023-04-12T05:53:48.477Z,6.21
2023-04-12T05:54:51.480Z,6.93
2023-04-12T05:55:54.432Z,7.00
2023-04-12T05:56:57.610Z,8.64
2023-04-12T05:58:00.596Z,6.35
2023-04-12T05:59:03.176Z,2.80
2023-04-12T06:00:06.132Z,4.18
2023-04-12T06:01:08.808Z,4.22
2023-04-12T06:02:12.099Z,4.12
2023-04-12T06:03:15.124Z,3.62
2023-04-12T06:04:18.176Z,3.43
2023-04-12T06:05:21.041Z,5.02
2023-04-12T06:06:23.903Z,3.97
2023-04-12T06:07:26.884Z,7.32
2023-04-12T06:08:29.643Z,3.76
2023-04-12T06:09:32.629Z,5.95
2023-04-12T06:10:35.498Z,3.34
2023-04-12T06:11:38.370Z,3.52
2023-04-12T06:12:41.350Z,3.61
2023-04-12T06:13:44.433Z,4.15
2023-04-12T06:14:47.313Z,16.75
2023-04-12T06:15:50.298Z,4.49
2023-04-12T06:16:53.377Z,5.55
2023-04-12T06:17:56.560Z,5.08
2023-04-12T06:18:59.223Z,3.82
2023-04-12T06:20:02.187Z,2.75
2023-04-12T06:21:04.968Z,3.77
2023-04-12T06:22:07.838Z,4.56
2023-04-12T06:23:11.027Z,3.25
2023-04-12T06:24:13.691Z,4.33
2023-04-12T06:25:16.152Z,4.32
2023-04-12T06:26:19.228Z,2.67
2023-04-12T06:27:21.902Z,4.06
2023-04-12T06:28:24.982Z,3.69
2023-04-12T06:29:27.648Z,2.83
2023-04-12T06:30:30.554Z,3.08
2023-04-12T06:31:33.149Z,4.17
2023-04-12T06:32:35.891Z,4.07
2023-04-12T06:33:38.323Z,5.92
2023-04-12T06:34:41.200Z,2.79
2023-04-12T06:35:44.370Z,3.17
2023-04-12T06:36:47.264Z,3.36
2023-04-12T06:37:50.143Z,5.85
2023-04-12T06:38:53.205Z,4.35
2023-04-12T06:39:55.880Z,5.60
2023-04-12T06:40:58.709Z,4.72
2023-04-12T06:42:01.863Z,3.81
2023-04-12T06:43:04.605Z,5.95
2023-04-12T06:44:07.274Z,3.36
2023-04-12T06:45:09.946Z,4.46
2023-04-12T06:46:12.619Z,3.63
2023-04-12T06:47:15.509Z,3.17
2023-04-12T06:48:18.260Z,4.75
2023-04-12T06:49:21.056Z,3.11
2023-04-12T06:50:23.704Z,4.58
2023-04-12T06:51:26.373Z,3.93
2023-04-12T06:52:29.040Z,5.34
2023-04-12T06:53:31.407Z,4.57
2023-04-12T06:54:34.482Z,3.65
2023-04-12T06:55:37.152Z,3.32
2023-04-12T06:56:39.825Z,5.33
2023-04-12T06:57:42.601Z,5.07
2023-04-12T06:58:45.577Z,5.41
2023-04-12T06:59:49.163Z,4.59
2023-04-12T07:00:52.181Z,4.64
2023-04-12T07:01:55.070Z,4.56
2023-04-12T07:02:58.032Z,3.52
2023-04-12T07:04:00.950Z,3.40
2023-04-12T07:05:04.189Z,5.31
2023-04-12T07:06:21.908Z,5.35
2023-04-12T07:07:12.460Z,13.71
2023-04-12T07:08:15.130Z,10.44
2023-04-12T07:09:17.837Z,5.81
2023-04-12T07:10:20.472Z,3.22
2023-04-12T07:11:23.460Z,5.67
2023-04-12T07:12:26.227Z,3.85
2023-04-12T07:13:29.200Z,4.00
2023-04-12T07:14:33.012Z,6.65
2023-04-12T07:15:36.186Z,3.60
2023-04-12T07:16:38.811Z,4.35
2023-04-12T07:17:41.338Z,3.94
2023-04-12T07:18:43.984Z,5.53
2023-04-12T07:19:46.558Z,4.55
2023-04-12T07:20:49.228Z,4.35
2023-04-12T07:21:51.885Z,3.95
2023-04-12T07:22:54.454Z,4.62
2023-04-12T07:23:57.226Z,4.53
2023-04-12T07:24:59.897Z,6.55
2023-04-12T07:26:03.002Z,6.58
2023-04-12T07:27:05.761Z,6.52
2023-04-12T07:28:09.151Z,5.29
2023-04-12T07:29:12.023Z,4.01
2023-04-12T07:30:14.885Z,4.31
2023-04-12T07:31:17.887Z,4.65
2023-04-12T07:32:20.863Z,3.68
2023-04-12T07:33:23.722Z,4.11
2023-04-12T07:34:26.698Z,4.11
2023-04-12T07:35:29.568Z,3.97
2023-04-12T07:36:32.440Z,5.09
2023-04-12T07:37:35.319Z,5.51
2023-04-12T07:38:38.414Z,5.54
2023-04-12T07:39:41.307Z,4.68
2023-04-12T07:40:44.457Z,6.35
2023-04-12T07:41:47.638Z,5.71
2023-04-12T07:42:50.204Z,4.05
2023-04-12T07:43:53.097Z,4.27
2023-04-12T07:44:55.958Z,7.66
2023-04-12T07:45:58.851Z,5.55
2023-04-12T07:47:01.917Z,5.82
2023-04-12T07:48:06.901Z,6.16
2023-04-12T07:49:09.706Z,4.89
2023-04-12T07:50:13.352Z,4.93
2023-04-12T07:51:16.279Z,4.64
2023-04-12T07:52:19.161Z,4.84
2023-04-12T07:53:25.511Z,5.10
2023-04-12T07:54:28.388Z,4.93
2023-04-12T07:55:31.261Z,7.31
2023-04-12T07:56:33.927Z,4.52
2023-04-12T07:57:36.694Z,4.61
2023-04-12T07:58:39.377Z,5.62
2023-04-12T07:59:42.035Z,4.11
2023-04-12T08:00:44.750Z,3.44
2023-04-12T08:01:47.418Z,5.55
2023-04-12T08:02:50.931Z,6.45
2023-04-12T08:03:53.801Z,4.90
2023-04-12T08:05:00.601Z,4.85
2023-04-12T08:06:03.611Z,4.60
2023-04-12T08:07:06.457Z,4.97
2023-04-12T08:08:09.555Z,5.69
2023-04-12T08:09:12.352Z,4.86
2023-04-12T08:10:15.191Z,5.60
2023-04-12T08:11:17.952Z,5.71
2023-04-12T08:12:20.938Z,4.81
2023-04-12T08:13:23.927Z,3.48
2023-04-12T08:14:28.434Z,5.75
2023-04-12T08:15:31.362Z,5.35
2023-04-12T08:16:34.288Z,5.30
2023-04-12T08:17:37.180Z,6.43
2023-04-12T08:18:40.158Z,4.88
2023-04-12T08:19:42.900Z,3.70
2023-04-12T08:20:45.772Z,5.62
2023-04-12T08:21:48.644Z,3.65
2023-04-12T08:22:51.630Z,2.93
2023-04-12T08:23:55.011Z,5.72
2023-04-12T08:24:58.220Z,6.19
2023-04-12T08:26:01.169Z,4.95
2023-04-12T08:27:04.042Z,4.06
2023-04-12T08:28:06.917Z,3.58
2023-04-12T08:29:09.791Z,5.08
2023-04-12T08:30:12.270Z,6.07
2023-04-12T08:31:14.947Z,7.54
2023-04-12T08:32:17.545Z,5.88
2023-04-12T08:33:20.180Z,4.42
2023-04-12T08:34:23.255Z,6.05
2023-04-12T08:35:27.644Z,6.95
2023-04-12T08:36:30.227Z,6.29
2023-04-12T08:37:32.906Z,4.23
2023-04-12T08:38:44.931Z,5.18
2023-04-12T08:39:40.494Z,4.13
2023-04-12T08:40:43.362Z,5.06
2023-04-12T08:41:52.277Z,7.35
2023-04-12T08:42:55.161Z,7.01
2023-04-12T08:43:58.027Z,7.61
2023-04-12T08:45:01.106Z,5.79
2023-04-12T08:46:04.042Z,4.46
2023-04-12T08:47:06.852Z,4.92
2023-04-12T08:48:09.732Z,5.56
2023-04-12T08:49:12.607Z,3.03
2023-04-12T08:50:15.398Z,4.09
2023-04-12T08:51:18.177Z,6.74
2023-04-12T08:52:20.818Z,5.15
2023-04-12T08:53:23.810Z,5.83
2023-04-12T08:54:26.783Z,4.79
2023-04-12T08:55:29.665Z,4.49
2023-04-12T08:56:34.854Z,6.11
2023-04-12T08:57:43.210Z,4.28
2023-04-12T08:58:46.098Z,4.58
2023-04-12T08:59:49.047Z,5.05
2023-04-12T09:00:52.009Z,5.17
2023-04-12T09:01:54.934Z,5.15
2023-04-12T09:02:58.265Z,5.88
2023-04-12T09:04:01.672Z,6.25
2023-04-12T09:05:04.563Z,3.71
2023-04-12T09:06:07.404Z,4.56
2023-04-12T09:07:11.382Z,4.01
2023-04-12T09:08:13.976Z,5.59
2023-04-12T09:09:16.860Z,4.48
2023-04-12T09:10:19.963Z,4.88
2023-04-12T09:11:22.904Z,5.19
2023-04-12T09:12:25.912Z,6.13
2023-04-12T09:13:28.657Z,4.76
2023-04-12T09:14:33.400Z,5.34
2023-04-12T09:15:36.265Z,3.37
2023-04-12T09:16:39.757Z,3.12
2023-04-12T09:17:42.708Z,3.65
2023-04-12T09:18:45.807Z,5.38
2023-04-12T09:19:48.361Z,5.50
2023-04-12T09:20:51.234Z,6.21
2023-04-12T09:21:54.210Z,6.15
2023-04-12T09:22:56.784Z,5.84
2023-04-12T09:23:59.600Z,8.54
2023-04-12T09:25:02.230Z,5.45
2023-04-12T09:26:04.998Z,6.00
2023-04-12T09:27:08.032Z,5.35
2023-04-12T09:28:13.936Z,7.95
2023-04-12T09:29:16.894Z,6.13
2023-04-12T09:30:19.869Z,6.70
2023-04-12T09:31:22.900Z,6.17
2023-04-12T09:32:25.550Z,5.21
2023-04-12T09:33:28.397Z,6.73
2023-04-12T09:34:31.264Z,7.20
2023-04-12T09:35:34.296Z,5.92
2023-04-12T09:36:37.239Z,6.36
2023-04-12T09:37:40.713Z,6.26
2023-04-12T09:38:43.317Z,7.18
2023-04-12T09:39:46.198Z,5.71
2023-04-12T09:40:49.025Z,6.23
2023-04-12T09:41:52.014Z,4.08
2023-04-12T09:42:54.880Z,5.11
2023-04-12T09:43:57.620Z,6.68
2023-04-12T09:45:00.338Z,5.71
2023-04-12T09:46:03.018Z,4.55
2023-04-12T09:47:05.554Z,5.08
2023-04-12T09:48:08.273Z,4.80
2023-04-12T09:49:10.897Z,6.73
2023-04-12T09:50:15.110Z,6.56
2023-04-12T09:51:17.687Z,4.22
2023-04-12T09:52:20.358Z,4.37
2023-04-12T09:53:23.112Z,4.68
2023-04-12T09:54:25.804Z,5.59
2023-04-12T09:55:28.769Z,6.73
2023-04-12T09:56:31.551Z,5.73
2023-04-12T09:57:34.461Z,7.47
2023-04-12T09:58:37.790Z,7.97
2023-04-12T09:59:40.879Z,5.52
2023-04-12T10:00:44.063Z,6.00
2023-04-12T10:01:47.051Z,6.78
2023-04-12T10:02:51.804Z,4.54
2023-04-12T10:03:54.490Z,6.29
2023-04-12T10:04:57.797Z,5.95
2023-04-12T10:06:00.789Z,6.38
2023-04-12T10:07:03.663Z,6.43
2023-04-12T10:08:06.468Z,6.12
2023-04-12T10:09:09.412Z,6.22
2023-04-12T10:10:12.299Z,6.55
2023-04-12T10:11:15.159Z,7.25
2023-04-12T10:12:18.023Z,6.75
2023-04-12T10:13:20.815Z,4.87
2023-04-12T10:14:25.866Z,4.10
2023-04-12T10:15:28.598Z,5.17
2023-04-12T10:16:31.508Z,5.12
2023-04-12T10:17:34.203Z,7.12
2023-04-12T10:18:36.813Z,5.75
2023-04-12T10:19:39.385Z,7.11
2023-04-12T10:20:47.988Z,5.81
2023-04-12T10:21:50.562Z,4.28
2023-04-12T10:22:53.446Z,4.95
2023-04-12T10:23:58.830Z,4.01
2023-04-12T10:25:01.749Z,4.83
2023-04-12T10:26:04.606Z,5.16
2023-04-12T10:27:07.300Z,7.64
2023-04-12T10:28:10.161Z,4.92
2023-04-12T10:29:12.848Z,5.26
2023-04-12T10:30:16.054Z,4.95
2023-04-12T10:31:18.935Z,6.46
2023-04-12T10:32:21.592Z,4.73
2023-04-12T10:33:24.486Z,5.99
2023-04-12T10:34:27.111Z,5.35
2023-04-12T10:35:30.125Z,5.32
2023-04-12T10:36:32.728Z,6.09
2023-04-12T10:37:37.741Z,7.62
2023-04-12T10:38:40.555Z,5.34
2023-04-12T10:39:43.440Z,5.55
2023-04-12T10:40:46.321Z,5.47
2023-04-12T10:41:48.900Z,5.38
2023-04-12T10:42:51.769Z,7.98
2023-04-12T10:43:54.836Z,6.21
2023-04-12T10:45:01.490Z,4.38
2023-04-12T10:46:04.245Z,5.41
2023-04-12T10:47:07.081Z,6.44
2023-04-12T10:48:09.608Z,4.47
2023-04-12T10:49:12.265Z,5.55
2023-04-12T10:50:14.884Z,7.72
2023-04-12T10:51:19.584Z,4.96
2023-04-12T10:52:22.858Z,5.42
2023-04-12T10:53:25.581Z,5.71
2023-04-12T10:54:28.391Z,6.40
2023-04-12T10:55:31.292Z,6.68
2023-04-12T10:56:34.864Z,6.55
2023-04-12T10:57:37.649Z,10.35
2023-04-12T10:58:40.487Z,5.83
2023-04-12T10:59:47.692Z,5.48
2023-04-12T11:00:47.674Z,5.49
2023-04-12T11:01:50.355Z,7.40
2023-04-12T11:02:53.324Z,5.64
2023-04-12T11:04:03.141Z,5.63
2023-04-12T11:05:06.297Z,4.62
2023-04-12T11:06:24.192Z,5.61
2023-04-12T11:07:14.033Z,5.13
2023-04-12T11:08:16.808Z,5.81
2023-04-12T11:09:19.628Z,6.42
2023-04-12T11:10:22.451Z,6.33
2023-04-12T11:11:25.354Z,4.49
2023-04-12T11:12:28.403Z,5.05
2023-04-12T11:13:31.275Z,6.92
2023-04-12T11:14:35.978Z,5.35
2023-04-12T11:15:38.598Z,6.18
2023-04-12T11:16:41.532Z,5.32
2023-04-12T11:17:44.142Z,6.32
2023-04-12T11:18:46.992Z,7.38
2023-04-12T11:19:49.786Z,9.11
2023-04-12T11:20:52.423Z,5.05
2023-04-12T11:21:54.994Z,6.18
2023-04-12T11:22:57.706Z,6.60
2023-04-12T11:24:00.350Z,6.05
2023-04-12T11:25:03.002Z,4.76
2023-04-12T11:26:05.673Z,6.21
2023-04-12T11:27:08.450Z,9.60
2023-04-12T11:28:25.224Z,8.69
2023-04-12T11:29:15.215Z,6.14
2023-04-12T11:30:18.092Z,8.04
2023-04-12T11:31:21.104Z,9.05
2023-04-12T11:32:26.621Z,8.12
2023-04-12T11:33:29.993Z,7.65
2023-04-12T11:34:33.892Z,7.13
2023-04-12T11:35:37.591Z,7.32
2023-04-12T11:36:40.569Z,7.29
2023-04-12T11:37:43.334Z,5.92
2023-04-12T11:38:46.450Z,6.68
2023-04-12T11:39:49.800Z,5.70
2023-04-12T11:40:52.377Z,4.12
2023-04-12T11:41:55.239Z,5.73
2023-04-12T11:42:58.126Z,4.64
2023-04-12T11:44:00.944Z,4.55
2023-04-12T11:45:10.273Z,6.66
2023-04-12T11:46:08.223Z,5.81
2023-04-12T11:47:12.279Z,6.08
2023-04-12T11:48:16.892Z,6.99
2023-04-12T11:49:19.571Z,8.62
2023-04-12T11:50:22.238Z,6.92
2023-04-12T11:51:25.343Z,5.55
2023-04-12T11:52:28.196Z,6.56
2023-04-12T11:53:35.072Z,5.78
2023-04-12T11:54:37.930Z,6.95
2023-04-12T11:55:41.957Z,6.83
2023-04-12T11:56:45.519Z,8.14
2023-04-12T11:57:48.193Z,8.44
2023-04-12T11:58:50.861Z,8.62
2023-04-12T11:59:53.845Z,6.38
2023-04-12T12:00:56.517Z,7.95
2023-04-12T12:01:59.349Z,9.21
2023-04-12T12:03:07.824Z,8.44
2023-04-12T12:04:07.421Z,7.53
2023-04-12T12:05:10.465Z,8.46
2023-04-12T12:06:13.339Z,7.22
2023-04-12T12:07:17.907Z,8.56
2023-04-12T12:08:20.624Z,10.79
2023-04-12T12:09:23.522Z,11.35
2023-04-12T12:10:44.351Z,8.62
2023-04-12T12:11:36.527Z,8.33
2023-04-12T12:12:39.194Z,8.33
2023-04-12T12:13:42.992Z,6.43
2023-04-12T12:14:45.753Z,8.15
2023-04-12T12:15:48.700Z,7.82
2023-04-12T12:16:51.306Z,7.46
2023-04-12T12:17:56.683Z,10.29
2023-04-12T12:18:59.324Z,7.54
2023-04-12T12:20:01.874Z,8.21
2023-04-12T12:21:04.736Z,7.84
2023-04-12T12:22:07.316Z,8.18
2023-04-12T12:23:09.991Z,9.16
2023-04-12T12:24:12.553Z,6.24
2023-04-12T12:25:17.985Z,8.11
2023-04-12T12:26:20.752Z,7.26
2023-04-12T12:27:25.543Z,7.74
2023-04-12T12:28:28.254Z,7.76
2023-04-12T12:29:30.815Z,5.59
2023-04-12T12:30:33.507Z,7.53
2023-04-12T12:31:36.448Z,8.75
2023-04-12T12:32:39.328Z,9.13
2023-04-12T12:33:46.503Z,7.85
2023-04-12T12:34:46.012Z,7.91
2023-04-12T12:35:48.605Z,8.58
2023-04-12T12:36:51.358Z,7.15
2023-04-12T12:37:54.019Z,8.08
2023-04-12T12:38:56.919Z,6.78
2023-04-12T12:39:59.665Z,6.53
2023-04-12T12:41:02.239Z,7.35
2023-04-12T12:42:05.020Z,7.33
2023-04-12T12:43:13.415Z,8.95
2023-04-12T12:44:16.090Z,7.05
2023-04-12T12:45:18.752Z,6.77
2023-04-12T12:46:21.671Z,8.91
2023-04-12T12:47:24.377Z,8.57
2023-04-12T12:48:26.993Z,9.48
2023-04-12T12:49:29.646Z,8.48
2023-04-12T12:50:32.446Z,7.90
2023-04-12T12:51:35.289Z,9.18
2023-04-12T12:52:38.160Z,9.08
2023-04-12T12:53:40.828Z,9.84
2023-04-12T12:54:43.507Z,8.75
2023-04-12T12:55:46.077Z,13.71
2023-04-12T12:56:48.770Z,18.48
2023-04-12T12:58:06.126Z,16.39
2023-04-12T12:58:55.244Z,21.11
2023-04-12T12:59:57.875Z,23.48
2023-04-12T13:01:01.879Z,22.28
2023-04-12T13:02:04.499Z,19.19
2023-04-12T13:03:08.076Z,12.58
2023-04-12T13:04:11.038Z,10.73
2023-04-12T13:05:14.100Z,9.58
2023-04-12T13:06:16.773Z,8.68
2023-04-12T13:07:19.940Z,10.79
2023-04-12T13:08:23.233Z,10.62
2023-04-12T13:09:26.194Z,9.01
2023-04-12T13:10:29.086Z,11.15
2023-04-12T13:11:31.634Z,7.70
2023-04-12T13:12:34.513Z,8.56
2023-04-12T13:13:37.296Z,8.79
2023-04-12T13:14:40.267Z,9.72
2023-04-12T13:15:42.937Z,10.00
2023-04-12T13:16:45.677Z,10.25
2023-04-12T13:17:48.605Z,24.29
2023-04-12T13:18:52.587Z,23.62
2023-04-12T13:19:55.354Z,18.15
2023-04-12T13:20:58.136Z,17.05
2023-04-12T13:22:00.730Z,26.57
2023-04-12T13:23:03.477Z,23.95
2023-04-12T13:24:06.548Z,48.02
2023-04-12T13:25:09.212Z,60.72
2023-04-12T13:26:11.884Z,81.84
2023-04-12T13:27:15.342Z,42.20
2023-04-12T13:28:18.451Z,29.14
2023-04-12T13:29:21.130Z,21.52
2023-04-12T13:30:24.002Z,30.40
2023-04-12T13:31:26.591Z,51.47
2023-04-12T13:32:29.458Z,39.74
2023-04-12T13:33:32.018Z,38.32
2023-04-12T13:34:35.016Z,24.18
2023-04-12T13:35:37.856Z,35.74
2023-04-12T13:36:46.473Z,41.76
2023-04-12T13:37:49.344Z,33.23
2023-04-12T13:38:52.114Z,21.36
2023-04-12T13:39:54.896Z,19.26
2023-04-12T13:40:57.874Z,11.39
2023-04-12T13:42:00.385Z,16.24
2023-04-12T13:43:02.891Z,29.42
2023-04-12T13:44:05.369Z,21.76
2023-04-12T13:45:08.131Z,12.53
2023-04-12T13:46:10.987Z,11.55
2023-04-12T13:47:13.476Z,14.01
2023-04-12T13:48:16.198Z,15.32
2023-04-12T13:49:18.930Z,13.93
2023-04-12T13:50:21.608Z,15.65
2023-04-12T13:51:24.359Z,13.08
2023-04-12T13:52:27.233Z,13.65
2023-04-12T13:53:29.908Z,13.70
2023-04-12T13:54:32.677Z,19.70
2023-04-12T13:55:35.957Z,21.01
2023-04-12T13:56:38.633Z,33.78
2023-04-12T13:57:41.297Z,43.23
2023-04-12T13:58:43.970Z,60.27
2023-04-12T13:59:46.548Z,37.67
2023-04-12T14:00:49.236Z,115.17
2023-04-12T14:01:51.953Z,38.71
2023-04-12T14:02:55.026Z,57.35
2023-04-12T14:03:57.738Z,20.07
2023-04-12T14:05:00.604Z,15.87
2023-04-12T14:06:03.593Z,18.49
2023-04-12T14:07:06.167Z,24.32
2023-04-12T14:08:08.714Z,23.11
2023-04-12T14:09:11.283Z,22.48
2023-04-12T14:10:13.853Z,16.95
2023-04-12T14:11:16.518Z,17.54
2023-04-12T14:12:19.191Z,12.14
2023-04-12T14:13:21.855Z,12.21
2023-04-12T14:14:24.551Z,19.29
2023-04-12T14:15:27.202Z,28.22
2023-04-12T14:16:29.865Z,17.93
2023-04-12T14:17:33.023Z,37.14
2023-04-12T14:18:35.970Z,94.59
2023-04-12T14:19:38.715Z,79.48
2023-04-12T14:20:41.298Z,38.17
2023-04-12T14:21:44.238Z,63.87
2023-04-12T14:22:46.932Z,49.81
2023-04-12T14:23:49.686Z,23.95
2023-04-12T14:24:52.558Z,21.45
2023-04-12T14:25:55.119Z,76.62
2023-04-12T14:26:57.795Z,74.28
2023-04-12T14:28:00.371Z,62.54
2023-04-12T14:29:03.243Z,28.86
2023-04-12T14:30:05.914Z,29.44
2023-04-12T14:31:08.545Z,20.83
2023-04-12T14:32:11.151Z,20.37
2023-04-12T14:33:13.826Z,21.92
2023-04-12T14:34:16.484Z,21.93
2023-04-12T14:35:19.069Z,26.52
2023-04-12T14:36:21.636Z,21.91
2023-04-12T14:37:24.798Z,24.75
2023-04-12T14:38:27.481Z,19.48
2023-04-12T14:39:30.147Z,19.75
2023-04-12T14:40:32.811Z,15.31
2023-04-12T14:41:35.707Z,14.89
2023-04-12T14:42:38.355Z,16.05
2023-04-12T14:43:41.252Z,13.18
2023-04-12T14:44:43.795Z,14.90
2023-04-12T14:45:46.673Z,12.48
2023-04-12T14:46:49.479Z,19.48
2023-04-12T14:47:52.722Z,16.12
2023-04-12T14:48:55.773Z,28.32